createdAt,value
2018-11-23T00:00:28.615Z,0.00
2018-11-23T00:01:28.641Z,0.00
2018-11-23T00:02:28.667Z,0.00
2018-11-23T00:03:28.690Z,0.00
2018-11-23T00:04:28.716Z,0.00
2018-11-23T00:05:28.740Z,0.00
2018-11-23T00:06:28.769Z,0.00
2018-11-23T00:07:28.795Z,0.00
2018-11-23T00:08:28.818Z,0.00
2018-11-23T00:09:28.846Z,0.00
2018-11-23T00:10:28.869Z,0.00
2018-11-23T00:11:28.895Z,0.00
2018-11-23T00:12:28.918Z,0.00
2018-11-23T00:13:28.947Z,0.00
2018-11-23T00:14:28.976Z,0.00
2018-11-23T00:15:28.997Z,0.00
2018-11-23T00:16:29.027Z,0.00
2018-11-23T00:17:29.045Z,0.00
2018-11-23T00:18:29.072Z,0.00
2018-11-23T00:19:29.096Z,0.00
2018-11-23T00:20:29.125Z,0.00
2018-11-23T00:21:29.147Z,0.00
2018-11-23T00:22:29.172Z,0.00
2018-11-23T00:23:29.198Z,0.00
2018-11-23T00:24:29.223Z,0.00
2018-11-23T00:25:29.298Z,0.00
2018-11-23T00:26:29.274Z,0.00
2018-11-23T00:27:29.299Z,0.00
2018-11-23T00:28:29.329Z,0.00
2018-11-23T00:29:29.350Z,0.00
2018-11-23T00:30:29.375Z,0.00
2018-11-23T00:31:29.403Z,0.00
2018-11-23T00:32:29.425Z,0.00
2018-11-23T00:33:29.450Z,0.00
2018-11-23T00:34:29.475Z,0.00
2018-11-23T00:35:29.499Z,0.00
2018-11-23T00:36:29.528Z,0.00
2018-11-23T00:37:29.551Z,0.00
2018-11-23T00:38:29.579Z,0.00
2018-11-23T00:39:29.603Z,0.00
2018-11-23T00:40:29.628Z,0.00
2018-11-23T00:41:29.652Z,0.00
2018-11-23T00:42:29.677Z,0.00
2018-11-23T00:43:29.699Z,0.00
2018-11-23T00:44:29.725Z,0.00
2018-11-23T00:45:29.752Z,0.00
2018-11-23T00:46:29.777Z,0.00
2018-11-23T00:47:29.805Z,0.00
2018-11-23T00:48:29.826Z,0.00
2018-11-23T00:49:29.851Z,0.00
2018-11-23T00:50:29.876Z,0.00
2018-11-23T00:51:29.902Z,0.00
2018-11-23T00:52:29.929Z,0.00
2018-11-23T00:53:29.953Z,0.00
2018-11-23T00:54:29.976Z,0.00
2018-11-23T00:55:30.005Z,0.00
2018-11-23T00:56:30.026Z,0.00
2018-11-23T00:57:30.057Z,0.00
2018-11-23T00:58:30.076Z,0.00
2018-11-23T00:59:30.101Z,0.00
2018-11-23T01:00:30.129Z,0.00
2018-11-23T01:01:30.154Z,0.00
2018-11-23T01:02:30.177Z,0.00
2018-11-23T01:03:30.201Z,0.00
2018-11-23T01:04:30.229Z,0.00
2018-11-23T01:05:30.256Z,0.00
2018-11-23T01:06:30.277Z,0.00
2018-11-23T01:07:30.302Z,0.00
2018-11-23T01:08:30.335Z,0.00
2018-11-23T01:09:30.353Z,0.00
2018-11-23T01:10:30.377Z,0.00
2018-11-23T01:11:30.403Z,0.00
2018-11-23T01:12:30.435Z,0.00
2018-11-23T01:13:30.455Z,0.00
2018-11-23T01:14:30.480Z,0.00
2018-11-23T01:15:30.502Z,0.00
2018-11-23T01:16:30.530Z,0.00
2018-11-23T01:17:30.556Z,0.00
2018-11-23T01:18:30.580Z,0.00
2018-11-23T01:19:30.607Z,0.00
2018-11-23T01:20:30.638Z,0.00
2018-11-23T01:21:30.655Z,0.00
2018-11-23T01:22:30.683Z,0.00
2018-11-23T01:23:30.708Z,0.00
2018-11-23T01:24:30.734Z,0.00
2018-11-23T01:25:30.755Z,0.00
2018-11-23T01:26:30.781Z,0.00
2018-11-23T01:27:30.808Z,0.00
2018-11-23T01:28:30.831Z,0.00
2018-11-23T01:29:30.857Z,0.00
2018-11-23T01:30:30.881Z,0.00
2018-11-23T01:31:30.904Z,0.00
2018-11-23T01:32:30.930Z,0.00
2018-11-23T01:33:30.957Z,0.00
2018-11-23T01:34:30.985Z,0.00
2018-11-23T01:35:31.009Z,0.00
2018-11-23T01:36:31.031Z,0.00
2018-11-23T01:37:31.061Z,0.00
2018-11-23T01:38:31.081Z,0.00
2018-11-23T01:39:31.109Z,0.00
2018-11-23T01:40:31.132Z,0.00
2018-11-23T01:41:31.158Z,0.00
2018-11-23T01:42:31.182Z,0.00
2018-11-23T01:43:31.210Z,0.00
2018-11-23T01:44:31.232Z,0.00
2018-11-23T01:45:31.262Z,0.00
2018-11-23T01:46:31.284Z,0.00
2018-11-23T01:47:31.309Z,0.00
2018-11-23T01:48:31.333Z,0.00
2018-11-23T01:49:31.358Z,0.00
2018-11-23T01:50:31.385Z,0.00
2018-11-23T01:51:31.410Z,0.00
2018-11-23T01:52:31.436Z,0.00
2018-11-23T01:53:31.460Z,0.00
2018-11-23T01:54:31.487Z,0.00
2018-11-23T01:55:31.510Z,0.00
2018-11-23T01:56:31.536Z,0.00
2018-11-23T01:57:31.558Z,0.00
2018-11-23T01:58:31.583Z,0.00
2018-11-23T01:59:31.612Z,0.00
2018-11-23T02:00:31.635Z,0.00
2018-11-23T02:01:31.666Z,0.00
2018-11-23T02:02:31.684Z,0.00
2018-11-23T02:03:31.710Z,0.00
2018-11-23T02:04:31.735Z,0.00
2018-11-23T02:05:31.762Z,0.00
2018-11-23T02:06:31.786Z,0.00
2018-11-23T02:07:31.812Z,0.00
2018-11-23T02:08:31.835Z,0.00
2018-11-23T02:09:31.859Z,0.00
2018-11-23T02:10:31.890Z,0.00
2018-11-23T02:11:31.910Z,0.00
2018-11-23T02:12:31.937Z,0.00
2018-11-23T02:13:31.962Z,0.00
2018-11-23T02:14:31.989Z,0.00
2018-11-23T02:15:32.013Z,0.00
2018-11-23T02:16:32.036Z,0.00
2018-11-23T02:17:32.060Z,0.00
2018-11-23T02:18:32.088Z,0.00
2018-11-23T02:19:32.113Z,0.00
2018-11-23T02:20:32.136Z,0.00
2018-11-23T02:21:32.162Z,0.00
2018-11-23T02:22:32.190Z,0.00
2018-11-23T02:23:32.215Z,0.00
2018-11-23T02:24:32.235Z,0.00
2018-11-23T02:25:32.260Z,0.00
2018-11-23T02:26:32.286Z,0.00
2018-11-23T02:27:32.313Z,0.00
2018-11-23T02:28:32.341Z,0.00
2018-11-23T02:29:32.361Z,0.00
2018-11-23T02:30:32.387Z,0.00
2018-11-23T02:31:32.412Z,0.00
2018-11-23T02:32:32.440Z,0.00
2018-11-23T02:33:32.460Z,0.00
2018-11-23T02:34:32.486Z,0.00
2018-11-23T02:35:32.510Z,0.00
2018-11-23T02:36:32.541Z,0.00
2018-11-23T02:37:32.568Z,0.00
2018-11-23T02:38:32.588Z,0.00
2018-11-23T02:39:32.611Z,0.00
2018-11-23T02:40:32.635Z,0.00
2018-11-23T02:41:32.661Z,0.00
2018-11-23T02:42:32.690Z,0.00
2018-11-23T02:43:32.709Z,0.00
2018-11-23T02:44:32.740Z,0.00
2018-11-23T02:45:32.760Z,0.00
2018-11-23T02:46:32.791Z,0.00
2018-11-23T02:47:32.811Z,0.00
2018-11-23T02:48:32.839Z,0.00
2018-11-23T02:49:32.861Z,0.00
2018-11-23T02:50:32.886Z,0.00
2018-11-23T02:51:32.913Z,0.00
2018-11-23T02:52:32.938Z,0.00
2018-11-23T02:53:32.963Z,0.00
2018-11-23T02:54:32.987Z,0.00
2018-11-23T02:55:33.010Z,0.00
2018-11-23T02:56:33.036Z,0.00
2018-11-23T02:57:33.062Z,0.00
2018-11-23T02:58:33.091Z,0.00
2018-11-23T02:59:33.117Z,0.00
2018-11-23T03:00:33.136Z,0.00
2018-11-23T03:01:33.164Z,0.00
2018-11-23T03:02:33.186Z,0.00
2018-11-23T03:03:33.210Z,0.00
2018-11-23T03:04:33.238Z,0.00
2018-11-23T03:05:33.264Z,0.00
2018-11-23T03:06:33.287Z,0.00
2018-11-23T03:07:33.310Z,0.00
2018-11-23T03:08:33.335Z,0.00
2018-11-23T03:09:33.362Z,0.00
2018-11-23T03:10:33.385Z,0.00
2018-11-23T03:11:33.411Z,0.00
2018-11-23T03:12:33.437Z,0.00
2018-11-23T03:13:33.459Z,0.00
2018-11-23T03:14:33.482Z,0.00
2018-11-23T03:15:33.518Z,0.00
2018-11-23T03:16:33.536Z,0.00
2018-11-23T03:17:33.562Z,0.00
2018-11-23T03:18:33.583Z,0.00
2018-11-23T03:19:33.616Z,0.00
2018-11-23T03:20:33.634Z,0.00
2018-11-23T03:21:33.661Z,0.00
2018-11-23T03:22:33.683Z,0.00
2018-11-23T03:23:33.707Z,0.00
2018-11-23T03:24:33.739Z,0.00
2018-11-23T03:25:33.757Z,0.00
2018-11-23T03:26:33.781Z,0.00
2018-11-23T03:27:33.813Z,0.00
2018-11-23T03:28:33.835Z,0.00
2018-11-23T03:29:33.909Z,0.00
2018-11-23T03:30:33.885Z,0.00
2018-11-23T03:31:33.906Z,0.00
2018-11-23T03:32:33.931Z,0.00
2018-11-23T03:33:33.958Z,0.00
2018-11-23T03:34:33.981Z,0.00
2018-11-23T03:35:34.005Z,0.00
2018-11-23T03:36:34.031Z,0.00
2018-11-23T03:37:34.059Z,0.00
2018-11-23T03:38:34.082Z,0.00
2018-11-23T03:39:34.311Z,0.00
2018-11-23T03:40:34.133Z,0.00
2018-11-23T03:41:34.158Z,0.00
2018-11-23T03:42:34.180Z,0.00
2018-11-23T03:43:34.207Z,0.00
2018-11-23T03:44:34.230Z,0.00
2018-11-23T03:45:34.257Z,0.00
2018-11-23T03:46:34.285Z,0.00
2018-11-23T03:47:34.307Z,0.00
2018-11-23T03:48:34.329Z,0.00
2018-11-23T03:49:34.353Z,0.00
2018-11-23T03:50:34.379Z,0.00
2018-11-23T03:51:34.404Z,0.00
2018-11-23T03:52:34.438Z,0.00
2018-11-23T03:53:34.458Z,0.00
2018-11-23T03:54:34.480Z,0.00
2018-11-23T03:55:34.503Z,0.00
2018-11-23T03:56:34.530Z,0.00
2018-11-23T03:57:34.554Z,0.00
2018-11-23T03:58:34.581Z,0.00
2018-11-23T03:59:34.604Z,0.00
2018-11-23T04:00:34.636Z,0.00
2018-11-23T04:01:34.654Z,0.00
2018-11-23T04:02:34.681Z,0.00
2018-11-23T04:03:34.707Z,0.00
2018-11-23T04:04:34.730Z,0.00
2018-11-23T04:05:34.755Z,0.00
2018-11-23T04:06:34.779Z,0.00
2018-11-23T04:07:34.808Z,0.00
2018-11-23T04:08:34.837Z,0.00
2018-11-23T04:09:34.865Z,0.00
2018-11-23T04:10:34.882Z,0.00
2018-11-23T04:11:34.908Z,0.00
2018-11-23T04:12:34.930Z,0.00
2018-11-23T04:13:34.955Z,0.00
2018-11-23T04:14:34.981Z,0.00
2018-11-23T04:15:35.006Z,0.00
2018-11-23T04:16:35.029Z,0.00
2018-11-23T04:17:35.056Z,0.00
2018-11-23T04:18:35.081Z,0.00
2018-11-23T04:19:35.106Z,0.00
2018-11-23T04:20:35.129Z,0.00
2018-11-23T04:21:35.159Z,0.00
2018-11-23T04:22:35.180Z,0.00
2018-11-23T04:23:35.206Z,0.00
2018-11-23T04:24:35.236Z,0.00
2018-11-23T04:25:35.258Z,0.00
2018-11-23T04:26:35.281Z,0.00
2018-11-23T04:27:35.307Z,0.00
2018-11-23T04:28:35.330Z,0.00
2018-11-23T04:29:35.365Z,0.00
2018-11-23T04:30:35.384Z,0.00
2018-11-23T04:31:35.408Z,0.00
2018-11-23T04:32:35.432Z,0.00
2018-11-23T04:33:35.458Z,0.00
2018-11-23T04:34:35.483Z,0.00
2018-11-23T04:35:35.508Z,0.00
2018-11-23T04:36:35.531Z,0.00
2018-11-23T04:37:35.559Z,0.00
2018-11-23T04:38:35.582Z,0.00
2018-11-23T04:39:35.607Z,0.00
2018-11-23T04:40:35.632Z,0.00
2018-11-23T04:41:35.658Z,0.00
2018-11-23T04:42:35.683Z,0.00
2018-11-23T04:43:35.712Z,0.00
2018-11-23T04:44:35.732Z,0.00
2018-11-23T04:45:35.757Z,0.00
2018-11-23T04:46:35.784Z,0.00
2018-11-23T04:47:35.810Z,0.00
2018-11-23T04:48:35.832Z,0.00
2018-11-23T04:49:35.857Z,0.00
2018-11-23T04:50:35.885Z,0.00
2018-11-23T04:51:35.908Z,0.00
2018-11-23T04:52:35.938Z,0.00
2018-11-23T04:53:35.958Z,0.00
2018-11-23T04:54:35.987Z,0.00
2018-11-23T04:55:36.012Z,0.00
2018-11-23T04:56:36.036Z,0.00
2018-11-23T04:57:36.061Z,0.00
2018-11-23T04:58:36.085Z,0.00
2018-11-23T04:59:36.108Z,0.00
2018-11-23T05:00:36.134Z,0.00
2018-11-23T05:01:36.160Z,0.00
2018-11-23T05:02:36.183Z,0.00
2018-11-23T05:03:36.210Z,0.00
2018-11-23T05:04:36.236Z,0.00
2018-11-23T05:05:36.262Z,0.00
2018-11-23T05:06:36.284Z,0.00
2018-11-23T05:07:36.308Z,0.00
2018-11-23T05:08:36.337Z,0.00
2018-11-23T05:09:36.363Z,0.00
2018-11-23T05:10:36.384Z,0.00
2018-11-23T05:11:36.410Z,0.00
2018-11-23T05:12:36.433Z,0.00
2018-11-23T05:13:36.459Z,0.00
2018-11-23T05:14:36.487Z,0.00
2018-11-23T05:15:36.508Z,0.00
2018-11-23T05:16:36.534Z,0.00
2018-11-23T05:17:36.563Z,0.00
2018-11-23T05:18:36.584Z,0.00
2018-11-23T05:19:36.608Z,0.00
2018-11-23T05:20:36.641Z,0.00
2018-11-23T05:21:36.661Z,0.00
2018-11-23T05:22:36.689Z,0.00
2018-11-23T05:23:36.711Z,0.00
2018-11-23T05:24:36.734Z,0.00
2018-11-23T05:25:36.762Z,0.00
2018-11-23T05:26:36.793Z,0.00
2018-11-23T05:27:36.810Z,0.00
2018-11-23T05:28:36.842Z,0.00
2018-11-23T05:29:36.863Z,0.00
2018-11-23T05:30:36.886Z,0.00
2018-11-23T05:31:36.913Z,0.00
2018-11-23T05:32:36.938Z,0.00
2018-11-23T05:33:36.960Z,0.00
2018-11-23T05:34:36.993Z,0.00
2018-11-23T05:35:37.014Z,0.00
2018-11-23T05:36:37.629Z,0.00
2018-11-23T05:37:37.061Z,0.00
2018-11-23T05:38:37.087Z,0.00
2018-11-23T05:39:37.115Z,0.00
2018-11-23T05:40:37.136Z,0.00
2018-11-23T05:41:37.161Z,0.00
2018-11-23T05:42:37.187Z,4.00
2018-11-23T05:43:37.214Z,4.00
2018-11-23T05:44:37.238Z,0.00
2018-11-23T05:45:37.263Z,0.00
2018-11-23T05:46:37.286Z,4.00
2018-11-23T05:47:37.311Z,4.00
2018-11-23T05:48:37.336Z,0.00
2018-11-23T05:49:37.361Z,4.00
2018-11-23T05:50:37.388Z,4.00
2018-11-23T05:51:37.418Z,4.00
2018-11-23T05:52:37.436Z,8.00
2018-11-23T05:53:37.463Z,4.00
2018-11-23T05:54:37.487Z,8.00
2018-11-23T05:55:37.511Z,8.00
2018-11-23T05:56:37.536Z,8.00
2018-11-23T05:57:37.560Z,8.00
2018-11-23T05:58:37.588Z,12.00
2018-11-23T05:59:37.609Z,12.00
2018-11-23T06:00:37.634Z,12.00
2018-11-23T06:01:37.671Z,16.00
2018-11-23T06:02:37.684Z,16.00
2018-11-23T06:03:37.709Z,20.00
2018-11-23T06:04:37.734Z,20.00
2018-11-23T06:05:37.758Z,24.00
2018-11-23T06:06:42.227Z,28.00
2018-11-23T06:07:37.810Z,32.00
2018-11-23T06:08:37.833Z,32.00
2018-11-23T06:09:37.866Z,36.00
2018-11-23T06:10:37.885Z,40.00
2018-11-23T06:11:37.909Z,40.00
2018-11-23T06:12:37.932Z,44.00
2018-11-23T06:13:37.960Z,52.00
2018-11-23T06:14:37.984Z,56.00
2018-11-23T06:15:40.475Z,60.00
2018-11-23T06:16:38.032Z,68.00
2018-11-23T06:17:38.058Z,68.00
2018-11-23T06:18:38.083Z,76.00
2018-11-23T06:19:38.107Z,84.00
2018-11-23T06:20:38.131Z,92.00
2018-11-23T06:21:38.157Z,96.00
2018-11-23T06:22:38.183Z,104.00
2018-11-23T06:23:38.206Z,116.00
2018-11-23T06:24:38.233Z,128.00
2018-11-23T06:25:38.263Z,136.00
2018-11-23T06:26:38.294Z,140.00
2018-11-23T06:27:38.304Z,152.00
2018-11-23T06:28:38.332Z,160.00
2018-11-23T06:29:38.361Z,172.00
2018-11-23T06:30:38.382Z,184.00
2018-11-23T06:31:38.406Z,200.00
2018-11-23T06:32:38.430Z,212.00
2018-11-23T06:33:38.462Z,228.00
2018-11-23T06:34:38.484Z,240.00
2018-11-23T06:35:38.506Z,252.00
2018-11-23T06:36:38.533Z,260.00
2018-11-23T06:37:38.556Z,268.00
2018-11-23T06:38:38.584Z,276.00
2018-11-23T06:39:38.609Z,284.00
2018-11-23T06:40:38.630Z,292.00
2018-11-23T06:41:38.654Z,300.00
2018-11-23T06:42:42.241Z,308.00
2018-11-23T06:43:38.705Z,324.00
2018-11-23T06:44:38.729Z,336.00
2018-11-23T06:45:38.753Z,352.00
2018-11-23T06:46:38.787Z,372.00
2018-11-23T06:47:38.805Z,392.00
2018-11-23T06:48:38.830Z,412.00
2018-11-23T06:49:38.852Z,432.00
2018-11-23T06:50:38.880Z,448.00
2018-11-23T06:51:38.902Z,464.00
2018-11-23T06:52:38.928Z,476.00
2018-11-23T06:53:38.951Z,484.00
2018-11-23T06:54:38.978Z,500.00
2018-11-23T06:55:39.000Z,516.00
2018-11-23T06:56:39.028Z,528.00
2018-11-23T06:57:39.052Z,540.00
2018-11-23T06:58:39.083Z,560.00
2018-11-23T06:59:39.103Z,588.00
2018-11-23T07:00:39.129Z,612.00
2018-11-23T07:01:39.150Z,640.00
2018-11-23T07:02:39.178Z,656.00
2018-11-23T07:03:39.203Z,672.00
2018-11-23T07:04:39.224Z,700.00
2018-11-23T07:05:39.252Z,724.00
2018-11-23T07:06:39.273Z,748.00
2018-11-23T07:07:39.305Z,768.00
2018-11-23T07:08:39.323Z,784.00
2018-11-23T07:09:39.348Z,800.00
2018-11-23T07:10:39.374Z,816.00
2018-11-23T07:11:39.397Z,824.00
2018-11-23T07:12:39.426Z,848.00
2018-11-23T07:13:39.448Z,880.00
2018-11-23T07:14:39.476Z,924.00
2018-11-23T07:15:39.496Z,968.00
2018-11-23T07:16:39.523Z,996.00
2018-11-23T07:17:39.550Z,1004.00
2018-11-23T07:18:39.571Z,1008.00
2018-11-23T07:19:39.595Z,1020.00
2018-11-23T07:20:39.621Z,1040.00
2018-11-23T07:21:39.645Z,1064.00
2018-11-23T07:22:39.678Z,1092.00
2018-11-23T07:23:39.698Z,1128.00
2018-11-23T07:24:39.722Z,1140.00
2018-11-23T07:25:39.746Z,1152.00
2018-11-23T07:26:39.771Z,1180.00
2018-11-23T07:27:39.802Z,1220.00
2018-11-23T07:28:39.822Z,1268.00
2018-11-23T07:29:39.847Z,1324.00
2018-11-23T07:30:39.872Z,1388.00
2018-11-23T07:31:39.896Z,1412.00
2018-11-23T07:32:39.925Z,1416.00
2018-11-23T07:33:39.944Z,1404.00
2018-11-23T07:34:39.968Z,1372.00
2018-11-23T07:35:39.994Z,1380.00
2018-11-23T07:36:40.018Z,1396.00
2018-11-23T07:37:40.042Z,1416.00
2018-11-23T07:38:40.067Z,1448.00
2018-11-23T07:39:40.090Z,1472.00
2018-11-23T07:40:40.115Z,1492.00
2018-11-23T07:41:40.142Z,1488.00
2018-11-23T07:42:40.169Z,1484.00
2018-11-23T07:43:40.188Z,1476.00
2018-11-23T07:44:40.213Z,1484.00
2018-11-23T07:45:40.238Z,1512.00
2018-11-23T07:46:40.267Z,1532.00
2018-11-23T07:47:40.287Z,1556.00
2018-11-23T07:48:40.316Z,1580.00
2018-11-23T07:49:40.339Z,1612.00
2018-11-23T07:50:40.365Z,1620.00
2018-11-23T07:51:40.393Z,1632.00
2018-11-23T07:52:40.412Z,1636.00
2018-11-23T07:53:40.441Z,1632.00
2018-11-23T07:54:40.464Z,1628.00
2018-11-23T07:55:40.489Z,1640.00
2018-11-23T07:56:40.514Z,1672.00
2018-11-23T07:57:40.543Z,1700.00
2018-11-23T07:58:40.561Z,1692.00
2018-11-23T07:59:40.587Z,1680.00
2018-11-23T08:00:40.610Z,1672.00
2018-11-23T08:01:40.641Z,1660.00
2018-11-23T08:02:40.660Z,1668.00
2018-11-23T08:03:40.685Z,1684.00
2018-11-23T08:04:40.714Z,1716.00
2018-11-23T08:05:40.734Z,1756.00
2018-11-23T08:06:40.759Z,1800.00
2018-11-23T08:07:40.784Z,1860.00
2018-11-23T08:08:40.814Z,1876.00
2018-11-23T08:09:40.834Z,1880.00
2018-11-23T08:10:40.861Z,1884.00
2018-11-23T08:11:40.891Z,1924.00
2018-11-23T08:12:40.912Z,2008.00
2018-11-23T08:13:40.946Z,2112.00
2018-11-23T08:14:40.960Z,2208.00
2018-11-23T08:15:40.983Z,2316.00
2018-11-23T08:16:41.009Z,2356.00
2018-11-23T08:17:41.035Z,2312.00
2018-11-23T08:18:41.060Z,2284.00
2018-11-23T08:19:47.213Z,2300.00
2018-11-23T08:20:41.108Z,2372.00
2018-11-23T08:21:41.175Z,2548.00
2018-11-23T08:22:41.165Z,2760.00
2018-11-23T08:23:41.184Z,2956.00
2018-11-23T08:24:41.212Z,2992.00
2018-11-23T08:25:41.239Z,2968.00
2018-11-23T08:26:41.259Z,2996.00
2018-11-23T08:27:41.285Z,3076.00
2018-11-23T08:28:41.309Z,3032.00
2018-11-23T08:29:41.333Z,3032.00
2018-11-23T08:30:41.360Z,3044.00
2018-11-23T08:31:41.384Z,3024.00
2018-11-23T08:32:41.412Z,2976.00
2018-11-23T08:33:41.437Z,2940.00
2018-11-23T08:34:41.460Z,3016.00
2018-11-23T08:35:41.485Z,3184.00
2018-11-23T08:36:41.509Z,3236.00
2018-11-23T08:37:41.539Z,3308.00
2018-11-23T08:38:41.570Z,3348.00
2018-11-23T08:39:41.585Z,3308.00
2018-11-23T08:40:41.611Z,3240.00
2018-11-23T08:41:41.637Z,3208.00
2018-11-23T08:42:41.662Z,3208.00
2018-11-23T08:43:41.685Z,3224.00
2018-11-23T08:44:41.713Z,3224.00
2018-11-23T08:45:41.739Z,3212.00
2018-11-23T08:46:41.762Z,3148.00
2018-11-23T08:47:41.787Z,3112.00
2018-11-23T08:48:41.828Z,3068.00
2018-11-23T08:49:41.846Z,3092.00
2018-11-23T08:50:41.870Z,3132.00
2018-11-23T08:51:41.890Z,3108.00
2018-11-23T08:52:41.915Z,3072.00
2018-11-23T08:53:41.941Z,3044.00
2018-11-23T08:54:41.969Z,3016.00
2018-11-23T08:55:41.991Z,3088.00
2018-11-23T08:56:42.017Z,3136.00
2018-11-23T08:57:42.043Z,3108.00
2018-11-23T08:58:42.069Z,3108.00
2018-11-23T08:59:42.095Z,3128.00
2018-11-23T09:00:42.120Z,3124.00
2018-11-23T09:01:42.159Z,3120.00
2018-11-23T09:02:42.171Z,3100.00
2018-11-23T09:03:42.199Z,3060.00
2018-11-23T09:04:42.225Z,3104.00
2018-11-23T09:05:42.252Z,3192.00
2018-11-23T09:06:42.282Z,3272.00
2018-11-23T09:07:42.304Z,3328.00
2018-11-23T09:08:42.324Z,3268.00
2018-11-23T09:09:42.353Z,3208.00
2018-11-23T09:10:42.378Z,3216.00
2018-11-23T09:11:42.403Z,3236.00
2018-11-23T09:12:42.431Z,3224.00
2018-11-23T09:13:42.458Z,3280.00
2018-11-23T09:14:42.480Z,3304.00
2018-11-23T09:15:42.506Z,3244.00
2018-11-23T09:16:42.531Z,3236.00
2018-11-23T09:17:42.560Z,3340.00
2018-11-23T09:18:42.584Z,3428.00
2018-11-23T09:19:42.611Z,3460.00
2018-11-23T09:20:42.636Z,3440.00
2018-11-23T09:21:42.661Z,3380.00
2018-11-23T09:22:42.692Z,3348.00
2018-11-23T09:23:42.714Z,3340.00
2018-11-23T09:24:42.744Z,3316.00
2018-11-23T09:25:42.765Z,3260.00
2018-11-23T09:26:42.791Z,3208.00
2018-11-23T09:27:42.821Z,3188.00
2018-11-23T09:28:42.843Z,3280.00
2018-11-23T09:29:42.881Z,3376.00
2018-11-23T09:30:42.896Z,3424.00
2018-11-23T09:31:42.922Z,3476.00
2018-11-23T09:32:42.948Z,3380.00
2018-11-23T09:33:42.974Z,3316.00
2018-11-23T09:34:43.002Z,3336.00
2018-11-23T09:35:43.032Z,3288.00
2018-11-23T09:36:43.052Z,3328.00
2018-11-23T09:37:43.080Z,3476.00
2018-11-23T09:38:43.105Z,3484.00
2018-11-23T09:39:43.134Z,3472.00
2018-11-23T09:40:43.163Z,3488.00
2018-11-23T09:41:43.184Z,3584.00
2018-11-23T09:42:43.213Z,3616.00
2018-11-23T09:43:43.235Z,3708.00
2018-11-23T09:44:43.268Z,3884.00
2018-11-23T09:45:43.287Z,3892.00
2018-11-23T09:46:43.314Z,3740.00
2018-11-23T09:47:43.343Z,3656.00
2018-11-23T09:48:43.364Z,3652.00
2018-11-23T09:49:43.392Z,3632.00
2018-11-23T09:50:43.417Z,3620.00
2018-11-23T09:51:43.445Z,3724.00
2018-11-23T09:52:43.470Z,3692.00
2018-11-23T09:53:43.497Z,3616.00
2018-11-23T09:54:43.523Z,3516.00
2018-11-23T09:55:43.552Z,3688.00
2018-11-23T09:56:43.575Z,3708.00
2018-11-23T09:57:43.599Z,3556.00
2018-11-23T09:58:43.952Z,3384.00
2018-11-23T09:59:43.651Z,3236.00
2018-11-23T10:00:43.680Z,3264.00
2018-11-23T10:01:43.706Z,3180.00
2018-11-23T10:02:43.730Z,3096.00
2018-11-23T10:03:43.756Z,3116.00
2018-11-23T10:04:43.782Z,3176.00
2018-11-23T10:05:43.810Z,3144.00
2018-11-23T10:06:43.889Z,3228.00
2018-11-23T10:07:43.861Z,3304.00
2018-11-23T10:08:43.887Z,3312.00
2018-11-23T10:09:43.914Z,3168.00
2018-11-23T10:10:43.941Z,3052.00
2018-11-23T10:11:43.974Z,3124.00
2018-11-23T10:12:43.992Z,3232.00
2018-11-23T10:13:44.021Z,3348.00
2018-11-23T10:14:44.047Z,3496.00
2018-11-23T10:15:44.071Z,3412.00
2018-11-23T10:16:44.096Z,3424.00
2018-11-23T10:17:44.122Z,3492.00
2018-11-23T10:18:44.151Z,3552.00
2018-11-23T10:19:44.174Z,3500.00
2018-11-23T10:20:44.199Z,3452.00
2018-11-23T10:21:44.227Z,3428.00
2018-11-23T10:22:44.253Z,3500.00
2018-11-23T10:23:44.286Z,3456.00
2018-11-23T10:24:44.303Z,3488.00
2018-11-23T10:25:44.330Z,3480.00
2018-11-23T10:26:44.383Z,3460.00
2018-11-23T10:27:44.423Z,3376.00
2018-11-23T10:28:44.415Z,3228.00
2018-11-23T10:29:44.438Z,3088.00
2018-11-23T10:30:44.460Z,3008.00
2018-11-23T10:31:44.493Z,3020.00
2018-11-23T10:32:44.519Z,3160.00
2018-11-23T10:33:44.538Z,3360.00
2018-11-23T10:34:44.565Z,3304.00
2018-11-23T10:35:44.593Z,3316.00
2018-11-23T10:36:44.622Z,3380.00
2018-11-23T10:37:44.641Z,3316.00
2018-11-23T10:38:44.668Z,3108.00
2018-11-23T10:39:44.692Z,2908.00
2018-11-23T10:40:44.719Z,2908.00
2018-11-23T10:41:44.744Z,2996.00
2018-11-23T10:42:44.774Z,2980.00
2018-11-23T10:43:44.798Z,3012.00
2018-11-23T10:44:44.821Z,3156.00
2018-11-23T10:45:44.850Z,3132.00
2018-11-23T10:46:44.883Z,3168.00
2018-11-23T10:47:44.901Z,3160.00
2018-11-23T10:48:44.925Z,3080.00
2018-11-23T10:49:44.951Z,2980.00
2018-11-23T10:50:44.977Z,3036.00
2018-11-23T10:51:45.007Z,3148.00
2018-11-23T10:52:45.029Z,3180.00
2018-11-23T10:54:45.084Z,3096.00
2018-11-23T10:55:45.105Z,3048.00
2018-11-23T10:56:45.146Z,2948.00
2018-11-23T10:57:45.160Z,2968.00
2018-11-23T10:58:45.187Z,2976.00
2018-11-23T10:59:45.249Z,2936.00
2018-11-23T11:00:45.238Z,3008.00
2018-11-23T11:01:45.264Z,3068.00
2018-11-23T11:02:45.296Z,3052.00
2018-11-23T11:03:45.314Z,2956.00
2018-11-23T11:04:45.342Z,2944.00
2018-11-23T11:05:45.366Z,3012.00
2018-11-23T11:06:45.394Z,2900.00
2018-11-23T11:07:45.419Z,2884.00
2018-11-23T11:08:45.446Z,2820.00
2018-11-23T11:09:45.470Z,2724.00
2018-11-23T11:10:45.499Z,2832.00
2018-11-23T11:11:45.522Z,2876.00
2018-11-23T11:12:45.549Z,2780.00
2018-11-23T11:13:45.575Z,2732.00
2018-11-23T11:14:45.603Z,2656.00
2018-11-23T11:15:45.633Z,2736.00
2018-11-23T11:16:45.656Z,2972.00
2018-11-23T11:17:45.681Z,3344.00
2018-11-23T11:18:45.709Z,3308.00
2018-11-23T11:19:45.735Z,3068.00
2018-11-23T11:20:45.762Z,2864.00
2018-11-23T11:21:45.787Z,2708.00
2018-11-23T11:22:45.809Z,2580.00
2018-11-23T11:23:45.837Z,2592.00
2018-11-23T11:24:45.869Z,2504.00
2018-11-23T11:25:45.891Z,2388.00
2018-11-23T11:26:45.917Z,2376.00
2018-11-23T11:27:45.940Z,2408.00
2018-11-23T11:28:45.966Z,2368.00
2018-11-23T11:29:45.997Z,2324.00
2018-11-23T11:30:46.019Z,2320.00
2018-11-23T11:31:46.044Z,2356.00
2018-11-23T11:32:46.070Z,2400.00
2018-11-23T11:33:46.096Z,2368.00
2018-11-23T11:34:46.124Z,2364.00
2018-11-23T11:35:46.152Z,2448.00
2018-11-23T11:36:46.176Z,2468.00
2018-11-23T11:37:46.201Z,2588.00
2018-11-23T11:38:46.343Z,2620.00
2018-11-23T11:39:46.255Z,2408.00
2018-11-23T11:40:46.284Z,2304.00
2018-11-23T11:41:46.309Z,2340.00
2018-11-23T11:42:46.333Z,2400.00
2018-11-23T11:43:46.355Z,2344.00
2018-11-23T11:44:46.382Z,2284.00
2018-11-23T11:45:46.411Z,2240.00
2018-11-23T11:46:46.438Z,2116.00
2018-11-23T11:47:46.461Z,2108.00
2018-11-23T11:48:46.489Z,2148.00
2018-11-23T11:49:46.513Z,2212.00
2018-11-23T11:50:46.538Z,2240.00
2018-11-23T11:51:46.564Z,2152.00
2018-11-23T11:52:46.597Z,2092.00
2018-11-23T11:53:46.618Z,2124.00
2018-11-23T11:54:46.642Z,2204.00
2018-11-23T11:55:46.717Z,2200.00
2018-11-23T11:56:46.693Z,2096.00
2018-11-23T11:57:46.722Z,1996.00
2018-11-23T11:58:46.746Z,2024.00
2018-11-23T11:59:46.774Z,2100.00
2018-11-23T12:00:46.797Z,2200.00
2018-11-23T12:01:46.824Z,2284.00
2018-11-23T12:02:46.849Z,2480.00
2018-11-23T12:03:46.875Z,2632.00
2018-11-23T12:04:46.911Z,2688.00
2018-11-23T12:05:46.928Z,2648.00
2018-11-23T12:06:46.954Z,2592.00
2018-11-23T12:07:46.981Z,2440.00
2018-11-23T12:08:47.012Z,2272.00
2018-11-23T12:09:47.036Z,2152.00
2018-11-23T12:10:47.058Z,2112.00
2018-11-23T12:11:47.083Z,2072.00
2018-11-23T12:12:47.107Z,2004.00
2018-11-23T12:13:47.137Z,1928.00
2018-11-23T12:14:47.159Z,1904.00
2018-11-23T12:15:47.189Z,1896.00
2018-11-23T12:16:47.212Z,1856.00
2018-11-23T12:17:47.242Z,1816.00
2018-11-23T12:18:47.262Z,1812.00
2018-11-23T12:19:47.291Z,1808.00
2018-11-23T12:20:47.316Z,1780.00
2018-11-23T12:21:47.341Z,1824.00
2018-11-23T12:22:47.367Z,1744.00
2018-11-23T12:23:47.395Z,1676.00
2018-11-23T12:24:47.420Z,1716.00
2018-11-23T12:25:47.446Z,1704.00
2018-11-23T12:26:47.471Z,1624.00
2018-11-23T12:27:47.495Z,1576.00
2018-11-23T12:28:47.520Z,1588.00
2018-11-23T12:29:47.546Z,1648.00
2018-11-23T12:30:47.572Z,1684.00
2018-11-23T12:31:47.598Z,1648.00
2018-11-23T12:32:47.629Z,1568.00
2018-11-23T12:33:47.650Z,1580.00
2018-11-23T12:34:47.678Z,1528.00
2018-11-23T12:35:47.705Z,1496.00
2018-11-23T12:36:47.731Z,1476.00
2018-11-23T12:37:47.761Z,1424.00
2018-11-23T12:38:47.780Z,1408.00
2018-11-23T12:39:47.806Z,1364.00
2018-11-23T12:40:47.835Z,1400.00
2018-11-23T12:41:47.860Z,1460.00
2018-11-23T12:42:47.893Z,1436.00